createdAt,value
2023-04-09T00:00:48.522Z,0.00
2023-04-09T00:01:48.509Z,0.00
2023-04-09T00:02:48.590Z,0.00
2023-04-09T00:03:48.605Z,0.00
2023-04-09T00:04:48.526Z,0.00
2023-04-09T00:05:48.463Z,0.00
2023-04-09T00:06:48.423Z,0.00
2023-04-09T00:07:48.428Z,0.00
2023-04-09T00:08:48.437Z,0.00
2023-04-09T00:09:48.397Z,0.00
2023-04-09T00:10:48.410Z,0.00
2023-04-09T00:11:48.393Z,0.00
2023-04-09T00:12:48.360Z,0.00
2023-04-09T00:13:48.444Z,0.00
2023-04-09T00:14:48.368Z,0.00
2023-04-09T00:15:48.351Z,0.00
2023-04-09T00:16:48.317Z,0.00
2023-04-09T00:17:48.391Z,0.00
2023-04-09T00:18:48.304Z,0.00
2023-04-09T00:19:48.294Z,0.00
2023-04-09T00:20:48.295Z,0.00
2023-04-09T00:21:48.307Z,0.00
2023-04-09T00:22:48.266Z,0.00
2023-04-09T00:23:48.245Z,0.00
2023-04-09T00:24:48.245Z,0.00
2023-04-09T00:25:48.241Z,0.00
2023-04-09T00:26:48.229Z,0.00
2023-04-09T00:27:48.229Z,0.00
2023-04-09T00:28:48.206Z,0.00
2023-04-09T00:29:48.211Z,0.00
2023-04-09T00:30:48.173Z,0.00
2023-04-09T00:31:48.300Z,0.00
2023-04-09T00:32:48.201Z,0.00
2023-04-09T00:33:48.165Z,0.00
2023-04-09T00:34:48.135Z,0.00
2023-04-09T00:35:48.195Z,0.00
2023-04-09T00:36:48.106Z,0.00
2023-04-09T00:37:48.110Z,0.00
2023-04-09T00:38:48.104Z,0.00
2023-04-09T00:39:48.085Z,0.00
2023-04-09T00:40:48.081Z,0.00
2023-04-09T00:41:48.058Z,0.00
2023-04-09T00:42:48.070Z,0.00
2023-04-09T00:43:48.037Z,0.00
2023-04-09T00:44:48.036Z,0.00
2023-04-09T00:45:48.047Z,0.00
2023-04-09T00:46:48.028Z,0.00
2023-04-09T00:47:48.087Z,0.00
2023-04-09T00:48:48.711Z,0.00
2023-04-09T00:49:47.996Z,0.00
2023-04-09T00:50:47.960Z,0.00
2023-04-09T00:51:47.994Z,0.00
2023-04-09T00:52:47.949Z,0.00
2023-04-09T00:53:47.950Z,0.00
2023-04-09T00:54:47.928Z,0.00
2023-04-09T00:55:47.923Z,0.00
2023-04-09T00:56:47.941Z,0.00
2023-04-09T00:57:47.928Z,0.00
2023-04-09T00:58:47.875Z,0.00
2023-04-09T00:59:47.864Z,0.00
2023-04-09T01:00:47.910Z,0.00
2023-04-09T01:01:47.907Z,0.00
2023-04-09T01:02:48.009Z,0.00
2023-04-09T01:03:47.976Z,0.00
2023-04-09T01:04:47.813Z,0.00
2023-04-09T01:05:47.819Z,0.00
2023-04-09T01:06:47.806Z,0.00
2023-04-09T01:07:47.806Z,0.00
2023-04-09T01:08:47.777Z,0.00
2023-04-09T01:09:47.791Z,0.00
2023-04-09T01:10:47.760Z,0.00
2023-04-09T01:11:47.773Z,0.00
2023-04-09T01:12:47.729Z,0.00
2023-04-09T01:13:47.730Z,0.00
2023-04-09T01:14:47.698Z,0.00
2023-04-09T01:15:47.716Z,0.00
2023-04-09T01:16:47.766Z,0.00
2023-04-09T01:17:47.701Z,0.00
2023-04-09T01:18:47.677Z,0.00
2023-04-09T01:19:47.676Z,0.00
2023-04-09T01:20:47.644Z,0.00
2023-04-09T01:21:47.641Z,0.00
2023-04-09T01:22:47.625Z,0.00
2023-04-09T01:23:47.624Z,0.00
2023-04-09T01:24:47.617Z,0.00
2023-04-09T01:25:47.623Z,0.00
2023-04-09T01:26:47.567Z,0.00
2023-04-09T01:27:47.587Z,0.00
2023-04-09T01:28:47.567Z,0.00
2023-04-09T01:29:47.562Z,0.00
2023-04-09T01:30:47.647Z,0.00
2023-04-09T01:31:47.524Z,0.00
2023-04-09T01:32:47.584Z,0.00
2023-04-09T01:33:47.497Z,0.00
2023-04-09T01:34:47.502Z,0.00
2023-04-09T01:35:47.522Z,0.00
2023-04-09T01:36:47.465Z,0.00
2023-04-09T01:37:47.488Z,0.00
2023-04-09T01:38:47.439Z,0.00
2023-04-09T01:39:47.452Z,0.00
2023-04-09T01:40:47.433Z,0.00
2023-04-09T01:41:47.414Z,0.00
2023-04-09T01:42:47.408Z,0.00
2023-04-09T01:43:47.430Z,0.00
2023-04-09T01:44:47.397Z,0.00
2023-04-09T01:45:47.429Z,0.00
2023-04-09T01:46:47.388Z,0.00
2023-04-09T01:47:47.392Z,0.00
2023-04-09T01:48:47.353Z,0.00
2023-04-09T01:49:47.348Z,0.00
2023-04-09T01:50:47.325Z,0.00
2023-04-09T01:51:47.318Z,0.00
2023-04-09T01:52:47.293Z,0.00
2023-04-09T01:53:47.299Z,0.00
2023-04-09T01:54:47.321Z,0.00
2023-04-09T01:55:47.294Z,0.00
2023-04-09T01:56:47.279Z,0.00
2023-04-09T01:57:47.242Z,0.00
2023-04-09T01:58:47.241Z,0.00
2023-04-09T01:59:47.224Z,0.00
2023-04-09T02:00:47.228Z,0.00
2023-04-09T02:01:47.442Z,0.00
2023-04-09T02:02:47.356Z,0.00
2023-04-09T02:03:47.309Z,0.00
2023-04-09T02:04:47.173Z,0.00
2023-04-09T02:05:47.171Z,0.00
2023-04-09T02:06:47.181Z,0.00
2023-04-09T02:07:47.134Z,0.00
2023-04-09T02:08:47.141Z,0.00
2023-04-09T02:09:47.121Z,0.00
2023-04-09T02:10:47.115Z,0.00
2023-04-09T02:11:47.142Z,0.00
2023-04-09T02:12:47.089Z,0.00
2023-04-09T02:13:47.085Z,0.00
2023-04-09T02:14:47.077Z,0.00
2023-04-09T02:15:47.090Z,0.00
2023-04-09T02:16:47.095Z,0.00
2023-04-09T02:17:47.124Z,0.00
2023-04-09T02:18:47.019Z,0.00
2023-04-09T02:19:47.036Z,0.00
2023-04-09T02:20:47.012Z,0.00
2023-04-09T02:21:47.013Z,0.00
2023-04-09T02:22:46.989Z,0.00
2023-04-09T02:23:46.980Z,0.00
2023-04-09T02:24:46.978Z,0.00
2023-04-09T02:25:47.002Z,0.00
2023-04-09T02:26:46.941Z,0.00
2023-04-09T02:27:46.928Z,0.00
2023-04-09T02:28:46.935Z,0.00
2023-04-09T02:29:46.904Z,0.00
2023-04-09T02:30:46.933Z,0.00
2023-04-09T02:31:46.907Z,0.00
2023-04-09T02:32:46.923Z,0.00
2023-04-09T02:33:46.866Z,0.00
2023-04-09T02:34:46.869Z,0.00
2023-04-09T02:35:46.888Z,0.00
2023-04-09T02:36:46.854Z,0.00
2023-04-09T02:37:46.826Z,0.00
2023-04-09T02:38:46.855Z,0.00
2023-04-09T02:39:46.802Z,0.00
2023-04-09T02:40:46.801Z,0.00
2023-04-09T02:41:46.798Z,0.00
2023-04-09T02:42:46.798Z,0.00
2023-04-09T02:43:46.766Z,0.00
2023-04-09T02:44:46.758Z,0.00
2023-04-09T02:45:46.762Z,0.00
2023-04-09T02:46:46.755Z,0.00
2023-04-09T02:47:46.751Z,0.00
2023-04-09T02:48:46.728Z,0.00
2023-04-09T02:49:46.734Z,0.00
2023-04-09T02:50:46.681Z,0.00
2023-04-09T02:51:46.666Z,0.00
2023-04-09T02:52:46.678Z,0.00
2023-04-09T02:53:46.642Z,0.00
2023-04-09T02:54:46.641Z,0.00
2023-04-09T02:55:46.628Z,0.00
2023-04-09T02:56:46.633Z,0.00
2023-04-09T02:57:46.636Z,0.00
2023-04-09T02:58:46.597Z,0.00
2023-04-09T02:59:46.616Z,0.00
2023-04-09T03:00:46.575Z,0.00
2023-04-09T03:01:46.653Z,0.00
2023-04-09T03:02:46.674Z,0.00
2023-04-09T03:03:46.603Z,0.00
2023-04-09T03:04:46.531Z,0.00
2023-04-09T03:05:46.534Z,0.00
2023-04-09T03:06:46.548Z,0.00
2023-04-09T03:07:46.508Z,0.00
2023-04-09T03:08:46.501Z,0.00
2023-04-09T03:09:46.496Z,0.00
2023-04-09T03:10:46.479Z,0.00
2023-04-09T03:11:46.496Z,0.00
2023-04-09T03:12:46.469Z,0.00
2023-04-09T03:13:46.480Z,0.00
2023-04-09T03:14:46.432Z,0.00
2023-04-09T03:15:46.462Z,0.00
2023-04-09T03:16:46.444Z,0.00
2023-04-09T03:17:46.416Z,0.00
2023-04-09T03:18:46.383Z,0.00
2023-04-09T03:19:46.381Z,0.00
2023-04-09T03:20:46.379Z,0.00
2023-04-09T03:21:46.462Z,0.00
2023-04-09T03:22:46.381Z,0.00
2023-04-09T03:23:46.330Z,0.00
2023-04-09T03:24:46.341Z,0.00
2023-04-09T03:25:46.319Z,0.00
2023-04-09T03:26:46.358Z,0.00
2023-04-09T03:27:46.304Z,0.00
2023-04-09T03:28:46.319Z,0.00
2023-04-09T03:29:46.290Z,0.00
2023-04-09T03:30:46.275Z,0.00
2023-04-09T03:31:46.252Z,0.00
2023-04-09T03:32:46.296Z,0.00
2023-04-09T03:33:46.246Z,0.00
2023-04-09T03:34:46.228Z,0.00
2023-04-09T03:35:46.271Z,0.00
2023-04-09T03:36:46.199Z,0.00
2023-04-09T03:37:46.210Z,0.00
2023-04-09T03:38:46.191Z,0.00
2023-04-09T03:39:46.173Z,0.00
2023-04-09T03:40:46.179Z,0.00
2023-04-09T03:41:46.163Z,0.00
2023-04-09T03:42:46.133Z,0.00
2023-04-09T03:43:46.136Z,0.00
2023-04-09T03:44:46.417Z,0.00
2023-04-09T03:45:46.098Z,0.00
2023-04-09T03:46:46.179Z,0.00
2023-04-09T03:47:46.164Z,0.00
2023-04-09T03:48:46.083Z,0.00
2023-04-09T03:49:46.062Z,0.00
2023-04-09T03:50:46.124Z,0.00
2023-04-09T03:51:46.053Z,0.00
2023-04-09T03:52:46.037Z,0.00
2023-04-09T03:53:46.132Z,0.00
2023-04-09T03:54:46.193Z,0.00
2023-04-09T03:55:46.000Z,0.00
2023-04-09T03:56:45.985Z,0.00
2023-04-09T03:57:45.983Z,0.00
2023-04-09T03:58:45.960Z,0.00
2023-04-09T03:59:45.958Z,0.00
2023-04-09T04:00:45.956Z,0.00
2023-04-09T04:01:45.987Z,0.00
2023-04-09T04:02:46.175Z,0.00
2023-04-09T04:03:46.072Z,0.00
2023-04-09T04:04:46.030Z,0.00
2023-04-09T04:05:45.909Z,0.00
2023-04-09T04:06:45.889Z,0.00
2023-04-09T04:07:45.872Z,0.00
2023-04-09T04:08:45.867Z,0.00
2023-04-09T04:09:45.846Z,0.00
2023-04-09T04:10:45.851Z,0.00
2023-04-09T04:11:46.088Z,0.00
2023-04-09T04:12:45.887Z,0.00
2023-04-09T04:13:45.794Z,0.00
2023-04-09T04:14:45.790Z,0.00
2023-04-09T04:15:45.792Z,0.00
2023-04-09T04:16:45.793Z,0.00
2023-04-09T04:17:45.843Z,0.00
2023-04-09T04:18:45.758Z,0.00
2023-04-09T04:19:45.738Z,0.00
2023-04-09T04:20:45.724Z,0.00
2023-04-09T04:21:45.985Z,0.00
2023-04-09T04:22:45.717Z,4.00
2023-04-09T04:23:45.696Z,0.00
2023-04-09T04:24:45.695Z,0.00
2023-04-09T04:25:45.683Z,4.00
2023-04-09T04:26:45.659Z,0.00
2023-04-09T04:27:45.672Z,4.00
2023-04-09T04:28:45.646Z,8.00
2023-04-09T04:29:45.652Z,4.00
2023-04-09T04:30:45.683Z,4.00
2023-04-09T04:31:45.637Z,4.00
2023-04-09T04:32:45.646Z,8.00
2023-04-09T04:33:45.591Z,8.00
2023-04-09T04:34:45.576Z,12.00
2023-04-09T04:35:45.587Z,16.00
2023-04-09T04:36:45.746Z,16.00
2023-04-09T04:37:45.553Z,16.00
2023-04-09T04:38:45.531Z,24.00
2023-04-09T04:39:45.541Z,24.00
2023-04-09T04:40:45.531Z,28.00
2023-04-09T04:41:45.722Z,32.00
2023-04-09T04:42:45.500Z,36.00
2023-04-09T04:43:45.486Z,40.00
2023-04-09T04:44:45.470Z,44.00
2023-04-09T04:45:45.518Z,52.00
2023-04-09T04:46:45.472Z,56.00
2023-04-09T04:47:45.453Z,60.00
2023-04-09T04:48:45.439Z,64.00
2023-04-09T04:49:45.427Z,72.00
2023-04-09T04:50:45.592Z,76.00
2023-04-09T04:51:45.396Z,88.00
2023-04-09T04:52:45.389Z,92.00
2023-04-09T04:53:45.375Z,100.00
2023-04-09T04:54:45.366Z,108.00
2023-04-09T04:55:45.359Z,116.00
2023-04-09T04:56:45.342Z,124.00
2023-04-09T04:57:45.340Z,136.00
2023-04-09T04:58:45.328Z,148.00
2023-04-09T04:59:45.318Z,156.00
2023-04-09T05:00:45.336Z,164.00
2023-04-09T05:01:45.337Z,172.00
2023-04-09T05:02:45.404Z,184.00
2023-04-09T05:03:45.387Z,196.00
2023-04-09T05:04:45.277Z,204.00
2023-04-09T05:05:45.235Z,220.00
2023-04-09T05:06:45.244Z,228.00
2023-04-09T05:07:45.218Z,236.00
2023-04-09T05:08:45.230Z,248.00
2023-04-09T05:09:45.220Z,264.00
2023-04-09T05:10:45.206Z,280.00
2023-04-09T05:11:45.194Z,284.00
2023-04-09T05:12:45.169Z,300.00
2023-04-09T05:13:45.173Z,312.00
2023-04-09T05:14:45.168Z,332.00
2023-04-09T05:15:45.138Z,348.00
2023-04-09T05:16:45.196Z,356.00
2023-04-09T05:17:45.162Z,364.00
2023-04-09T05:18:45.110Z,376.00
2023-04-09T05:19:45.091Z,396.00
2023-04-09T05:20:45.108Z,412.00
2023-04-09T05:21:46.765Z,424.00
2023-04-09T05:22:45.080Z,436.00
2023-04-09T05:23:45.064Z,448.00
2023-04-09T05:24:45.080Z,464.00
2023-04-09T05:25:45.033Z,476.00
2023-04-09T05:26:45.027Z,492.00
2023-04-09T05:27:45.017Z,504.00
2023-04-09T05:28:45.025Z,520.00
2023-04-09T05:29:44.989Z,536.00
2023-04-09T05:30:45.045Z,552.00
2023-04-09T05:31:44.961Z,560.00
2023-04-09T05:32:44.977Z,576.00
2023-04-09T05:33:44.974Z,592.00
2023-04-09T05:34:44.951Z,612.00
2023-04-09T05:35:44.986Z,628.00
2023-04-09T05:36:44.934Z,640.00
2023-04-09T05:37:44.915Z,656.00
2023-04-09T05:38:44.909Z,664.00
2023-04-09T05:39:44.891Z,688.00
2023-04-09T05:40:44.891Z,696.00
2023-04-09T05:41:45.742Z,716.00
2023-04-09T05:42:45.218Z,724.00
2023-04-09T05:43:45.227Z,744.00
2023-04-09T05:44:45.208Z,744.00
2023-04-09T05:45:45.088Z,760.00
2023-04-09T05:46:44.823Z,792.00
2023-04-09T05:47:45.189Z,828.00
2023-04-09T05:48:44.824Z,812.00
2023-04-09T05:49:44.789Z,828.00
2023-04-09T05:50:53.934Z,868.00
2023-04-09T05:51:45.872Z,884.00
2023-04-09T05:52:44.779Z,908.00
2023-04-09T05:53:44.762Z,940.00
2023-04-09T05:54:44.731Z,952.00
2023-04-09T05:55:44.724Z,984.00
2023-04-09T05:56:44.725Z,1020.00
2023-04-09T05:57:44.698Z,1048.00
2023-04-09T05:58:44.716Z,1052.00
2023-04-09T05:59:44.879Z,1064.00
2023-04-09T06:00:44.697Z,1120.00
2023-04-09T06:01:44.769Z,1104.00
2023-04-09T06:02:44.764Z,1132.00
2023-04-09T06:03:45.815Z,1180.00
2023-04-09T06:04:44.713Z,1212.00
2023-04-09T06:05:45.171Z,1244.00
2023-04-09T06:06:44.647Z,1256.00
2023-04-09T06:07:45.178Z,1328.00
2023-04-09T06:08:44.594Z,1376.00
2023-04-09T06:09:44.648Z,1416.00
2023-04-09T06:10:44.560Z,1468.00
2023-04-09T06:11:44.566Z,1500.00
2023-04-09T06:12:44.553Z,1492.00
2023-04-09T06:13:44.526Z,1560.00
2023-04-09T06:14:44.519Z,1620.00
2023-04-09T06:15:44.569Z,1628.00
2023-04-09T06:16:44.505Z,1636.00
2023-04-09T06:17:44.572Z,1624.00
2023-04-09T06:18:44.488Z,1520.00
2023-04-09T06:19:44.474Z,1500.00
2023-04-09T06:20:44.477Z,1484.00
2023-04-09T06:21:44.456Z,1408.00
2023-04-09T06:22:44.440Z,1312.00
2023-04-09T06:23:44.434Z,1240.00
2023-04-09T06:24:44.414Z,1184.00
2023-04-09T06:25:44.431Z,1108.00
2023-04-09T06:26:44.403Z,1064.00
2023-04-09T06:27:44.388Z,1036.00
2023-04-09T06:28:44.384Z,1024.00
2023-04-09T06:29:44.401Z,1024.00
2023-04-09T06:30:44.458Z,1028.00
2023-04-09T06:31:44.367Z,1028.00
2023-04-09T06:32:53.632Z,1032.00
2023-04-09T06:33:45.341Z,1036.00
2023-04-09T06:34:44.307Z,1040.00
2023-04-09T06:35:44.323Z,1044.00
2023-04-09T06:36:44.293Z,1044.00
2023-04-09T06:37:44.272Z,1040.00
2023-04-09T06:38:44.276Z,1040.00
2023-04-09T06:39:50.564Z,1044.00
2023-04-09T06:40:45.244Z,1052.00
2023-04-09T06:41:44.234Z,1056.00
2023-04-09T06:42:44.232Z,1060.00
2023-04-09T06:43:44.206Z,1068.00
2023-04-09T06:44:44.198Z,1072.00
2023-04-09T06:45:44.200Z,1072.00
2023-04-09T06:46:44.199Z,1076.00
2023-04-09T06:47:44.210Z,1084.00
2023-04-09T06:48:44.159Z,1088.00
2023-04-09T06:49:44.246Z,1096.00
2023-04-09T06:50:44.144Z,1100.00
2023-04-09T06:51:44.126Z,1100.00
2023-04-09T06:52:44.127Z,1104.00
2023-04-09T06:53:44.402Z,1104.00
2023-04-09T06:54:44.098Z,1104.00
2023-04-09T06:55:44.095Z,1108.00
2023-04-09T06:56:44.062Z,1108.00
2023-04-09T06:57:44.070Z,1112.00
2023-04-09T06:58:44.107Z,1112.00
2023-04-09T06:59:44.039Z,1120.00
2023-04-09T07:00:44.031Z,1120.00
2023-04-09T07:01:44.089Z,1124.00
2023-04-09T07:02:44.333Z,1128.00
2023-04-09T07:03:44.076Z,1132.00
2023-04-09T07:04:44.043Z,1136.00
2023-04-09T07:05:44.014Z,1140.00
2023-04-09T07:06:43.981Z,1144.00
2023-04-09T07:07:44.000Z,1148.00
2023-04-09T07:08:43.980Z,1152.00
2023-04-09T07:09:43.933Z,1156.00
2023-04-09T07:10:43.919Z,1160.00
2023-04-09T07:11:43.932Z,1160.00
2023-04-09T07:12:44.048Z,1164.00
2023-04-09T07:13:44.002Z,1176.00
2023-04-09T07:14:43.899Z,1180.00
2023-04-09T07:15:43.930Z,1184.00
2023-04-09T07:16:43.910Z,1188.00
2023-04-09T07:17:44.009Z,1188.00
2023-04-09T07:18:43.886Z,1188.00
2023-04-09T07:19:44.255Z,1188.00
2023-04-09T07:20:43.849Z,1188.00
2023-04-09T07:21:43.878Z,1184.00
2023-04-09T07:22:43.852Z,1184.00
2023-04-09T07:23:43.913Z,1180.00
2023-04-09T07:24:43.801Z,1184.00
2023-04-09T07:25:43.779Z,1188.00
2023-04-09T07:26:43.751Z,1188.00
2023-04-09T07:27:43.751Z,1192.00
2023-04-09T07:28:43.736Z,1196.00
2023-04-09T07:29:43.739Z,1196.00
2023-04-09T07:30:43.701Z,1196.00
2023-04-09T07:31:43.836Z,1196.00
2023-04-09T07:32:43.748Z,1196.00
2023-04-09T07:33:43.686Z,1196.00
2023-04-09T07:34:43.698Z,1200.00
2023-04-09T07:35:43.691Z,1204.00
2023-04-09T07:36:43.656Z,1208.00
2023-04-09T07:37:43.648Z,1200.00
2023-04-09T07:38:43.631Z,1208.00
2023-04-09T07:39:43.613Z,1208.00
2023-04-09T07:40:43.597Z,1216.00
2023-04-09T07:41:43.612Z,1224.00
2023-04-09T07:42:43.588Z,1236.00
2023-04-09T07:43:43.588Z,1256.00
2023-04-09T07:44:43.570Z,1424.00
2023-04-09T07:45:43.550Z,1560.00
2023-04-09T07:46:43.593Z,1428.00
2023-04-09T07:47:43.573Z,1376.00
2023-04-09T07:48:43.521Z,1348.00
2023-04-09T07:49:43.524Z,1304.00
2023-04-09T07:50:43.511Z,1296.00
2023-04-09T07:51:43.685Z,1320.00
2023-04-09T07:52:43.472Z,1352.00
2023-04-09T07:53:43.481Z,1472.00
2023-04-09T07:54:43.450Z,1560.00
2023-04-09T07:55:43.468Z,1696.00
2023-04-09T07:56:43.446Z,1680.00
2023-04-09T07:57:43.438Z,1656.00
2023-04-09T07:58:43.420Z,1692.00
2023-04-09T07:59:43.417Z,1772.00
2023-04-09T08:00:43.413Z,1908.00
2023-04-09T08:01:43.473Z,2104.00
2023-04-09T08:02:43.486Z,2252.00
2023-04-09T08:03:43.539Z,2316.00
2023-04-09T08:04:43.527Z,2328.00
2023-04-09T08:05:43.389Z,2236.00
2023-04-09T08:06:43.335Z,2136.00
2023-04-09T08:07:43.323Z,1996.00
2023-04-09T08:08:43.322Z,1876.00
2023-04-09T08:09:43.309Z,1772.00
2023-04-09T08:10:43.296Z,1684.00
2023-04-09T08:11:43.281Z,1600.00
2023-04-09T08:12:43.305Z,1552.00
2023-04-09T08:13:43.286Z,1516.00
2023-04-09T08:14:43.261Z,1484.00
2023-04-09T08:15:43.225Z,1452.00
2023-04-09T08:16:43.273Z,1440.00
2023-04-09T08:17:43.255Z,1432.00
2023-04-09T08:18:43.211Z,1432.00
2023-04-09T08:19:43.206Z,1440.00
2023-04-09T08:20:43.186Z,1460.00
2023-04-09T08:21:43.182Z,1480.00
2023-04-09T08:22:43.155Z,1480.00
2023-04-09T08:23:43.156Z,1484.00
2023-04-09T08:24:43.138Z,1516.00
2023-04-09T08:25:43.118Z,1524.00
2023-04-09T08:26:43.122Z,1540.00
2023-04-09T08:27:43.106Z,1560.00
2023-04-09T08:28:43.103Z,1568.00
2023-04-09T08:29:43.115Z,1576.00
2023-04-09T08:30:43.095Z,1592.00
2023-04-09T08:31:43.120Z,1564.00
2023-04-09T08:32:43.099Z,1560.00
2023-04-09T08:33:43.061Z,1548.00
2023-04-09T08:34:43.027Z,1552.00
2023-04-09T08:35:43.019Z,1580.00
2023-04-09T08:36:43.020Z,1584.00
2023-04-09T08:37:43.015Z,1552.00
2023-04-09T08:38:42.984Z,1564.00
2023-04-09T08:39:43.017Z,1604.00
2023-04-09T08:40:42.971Z,1700.00
2023-04-09T08:41:42.984Z,1760.00
2023-04-09T08:42:42.956Z,1712.00
2023-04-09T08:43:56.921Z,1700.00
2023-04-09T08:44:43.937Z,1740.00
2023-04-09T08:45:42.937Z,1780.00
2023-04-09T08:46:42.899Z,1820.00
2023-04-09T08:47:42.981Z,1820.00
2023-04-09T08:48:42.986Z,1816.00
2023-04-09T08:49:42.896Z,1836.00
2023-04-09T08:50:42.884Z,1840.00
2023-04-09T08:51:42.853Z,1848.00
2023-04-09T08:52:42.855Z,1840.00
2023-04-09T08:53:42.822Z,1800.00
2023-04-09T08:54:42.856Z,1772.00
2023-04-09T08:55:42.824Z,1760.00
2023-04-09T08:56:42.802Z,1824.00
2023-04-09T08:57:42.820Z,1916.00
2023-04-09T08:58:42.777Z,1988.00
2023-04-09T08:59:42.768Z,1992.00
2023-04-09T09:00:42.754Z,2060.00
2023-04-09T09:01:42.775Z,2008.00
2023-04-09T09:02:42.838Z,1908.00
2023-04-09T09:03:42.796Z,1884.00
2023-04-09T09:04:42.697Z,1908.00
2023-04-09T09:05:42.703Z,1940.00
2023-04-09T09:06:42.712Z,1920.00
2023-04-09T09:07:42.677Z,1908.00
2023-04-09T09:08:42.684Z,1912.00
2023-04-09T09:09:42.660Z,1884.00
2023-04-09T09:10:42.654Z,1848.00
2023-04-09T09:11:42.632Z,1876.00
2023-04-09T09:12:42.646Z,1972.00
2023-04-09T09:13:42.639Z,2120.00
2023-04-09T09:14:42.598Z,2312.00
2023-04-09T09:15:42.606Z,2948.00
2023-04-09T09:16:42.751Z,3240.00
2023-04-09T09:17:42.651Z,3196.00
2023-04-09T09:18:42.553Z,3108.00
2023-04-09T09:19:42.577Z,2964.00
2023-04-09T09:20:42.534Z,2740.00
2023-04-09T09:21:42.556Z,2532.00
2023-04-09T09:22:42.515Z,2320.00
2023-04-09T09:23:42.542Z,1908.00
2023-04-09T09:24:42.503Z,1828.00
2023-04-09T09:25:42.512Z,2032.00
2023-04-09T09:26:42.485Z,2060.00
2023-04-09T09:27:42.472Z,2280.00
2023-04-09T09:28:42.447Z,2188.00
2023-04-09T09:29:42.473Z,2264.00
2023-04-09T09:30:42.456Z,2688.00
2023-04-09T09:31:42.428Z,4024.00
2023-04-09T09:32:42.464Z,4856.00
2023-04-09T09:33:42.412Z,5024.00
2023-04-09T09:34:43.392Z,5012.00
2023-04-09T09:35:42.431Z,4848.00
2023-04-09T09:36:42.376Z,4532.00
2023-04-09T09:37:42.363Z,4456.00
2023-04-09T09:38:42.347Z,4312.00
2023-04-09T09:39:42.329Z,3924.00
2023-04-09T09:40:42.329Z,3640.00
2023-04-09T09:41:42.326Z,3476.00
2023-04-09T09:42:42.305Z,3544.00
2023-04-09T09:43:42.301Z,4032.00
2023-04-09T09:44:42.284Z,4612.00
2023-04-09T09:45:42.344Z,4416.00
2023-04-09T09:46:42.337Z,5452.00
2023-04-09T09:47:42.284Z,5844.00
2023-04-09T09:48:42.232Z,5608.00
2023-04-09T09:49:42.244Z,5764.00
2023-04-09T09:50:42.241Z,5788.00
2023-04-09T09:51:42.236Z,4144.00
2023-04-09T09:52:42.208Z,3952.00
2023-04-09T09:53:42.192Z,4656.00
2023-04-09T09:54:42.192Z,4660.00
2023-04-09T09:55:42.186Z,4616.00
2023-04-09T09:56:42.147Z,4688.00
2023-04-09T09:57:42.155Z,5244.00
2023-04-09T09:58:42.147Z,5224.00
2023-04-09T09:59:42.135Z,5656.00
2023-04-09T10:00:42.123Z,5280.00
2023-04-09T10:01:42.179Z,5240.00
2023-04-09T10:02:42.198Z,5060.00
2023-04-09T10:03:42.074Z,5376.00
2023-04-09T10:04:42.140Z,4656.00
2023-04-09T10:05:42.063Z,4644.00
2023-04-09T10:06:42.059Z,5108.00
2023-04-09T10:07:42.062Z,5384.00
2023-04-09T10:08:42.020Z,4996.00
2023-04-09T10:09:42.024Z,4944.00
2023-04-09T10:10:42.019Z,4596.00
2023-04-09T10:11:42.036Z,4252.00
2023-04-09T10:12:41.991Z,5052.00
2023-04-09T10:13:42.008Z,4604.00
2023-04-09T10:14:41.956Z,4400.00
2023-04-09T10:15:41.945Z,4980.00
2023-04-09T10:16:41.945Z,6388.00
2023-04-09T10:17:42.007Z,5888.00
2023-04-09T10:18:41.938Z,5088.00
2023-04-09T10:19:42.856Z,4180.00
2023-04-09T10:20:41.906Z,4392.00
2023-04-09T10:21:42.878Z,4140.00
2023-04-09T10:22:41.885Z,3988.00
2023-04-09T10:23:41.895Z,4168.00
2023-04-09T10:24:41.856Z,4656.00
2023-04-09T10:25:41.863Z,4740.00
2023-04-09T10:26:41.870Z,4496.00
2023-04-09T10:27:41.836Z,4752.00
2023-04-09T10:28:41.845Z,4904.00
2023-04-09T10:29:41.805Z,4604.00
2023-04-09T10:30:41.807Z,4396.00
2023-04-09T10:31:41.816Z,4592.00
2023-04-09T10:32:41.809Z,5360.00
2023-04-09T10:33:41.762Z,5804.00
2023-04-09T10:34:41.741Z,5356.00
2023-04-09T10:35:41.746Z,5128.00
2023-04-09T10:36:41.728Z,5816.00
2023-04-09T10:37:41.726Z,5616.00
2023-04-09T10:38:41.720Z,4860.00
2023-04-09T10:39:41.693Z,4856.00
2023-04-09T10:40:41.699Z,4908.00
2023-04-09T10:41:41.660Z,5876.00
2023-04-09T10:42:41.670Z,5948.00
2023-04-09T10:43:41.661Z,5752.00
2023-04-09T10:44:41.649Z,6184.00
2023-04-09T10:45:41.664Z,6696.00
2023-04-09T10:46:41.707Z,6252.00
2023-04-09T10:47:41.685Z,5876.00
2023-04-09T10:48:41.614Z,5664.00
2023-04-09T10:49:41.622Z,5464.00
2023-04-09T10:50:41.580Z,5064.00
2023-04-09T10:51:41.564Z,4776.00
2023-04-09T10:52:41.563Z,4796.00
2023-04-09T10:53:41.545Z,5088.00
2023-04-09T10:54:41.545Z,4604.00
2023-04-09T10:55:41.546Z,5636.00
2023-04-09T10:56:41.512Z,5888.00
2023-04-09T10:57:41.502Z,5580.00
2023-04-09T10:58:41.507Z,5904.00
2023-04-09T10:59:41.493Z,5988.00
2023-04-09T11:00:41.502Z,5676.00
2023-04-09T11:01:41.560Z,5252.00
2023-04-09T11:02:41.540Z,4916.00
2023-04-09T11:03:41.467Z,4764.00
2023-04-09T11:04:41.479Z,4948.00
2023-04-09T11:05:41.421Z,5668.00
2023-04-09T11:06:41.412Z,6000.00
2023-04-09T11:07:41.444Z,6088.00
2023-04-09T11:08:41.417Z,6292.00
2023-04-09T11:09:41.382Z,5808.00
2023-04-09T11:10:41.381Z,5464.00
2023-04-09T11:11:41.350Z,5440.00
2023-04-09T11:12:41.348Z,5512.00
2023-04-09T11:13:41.329Z,6296.00
2023-04-09T11:14:41.339Z,6764.00
2023-04-09T11:15:41.312Z,6164.00
2023-04-09T11:16:41.343Z,5864.00
2023-04-09T11:17:41.388Z,6440.00
2023-04-09T11:18:41.341Z,7004.00
2023-04-09T11:19:41.267Z,8116.00
2023-04-09T11:20:41.265Z,8504.00
2023-04-09T11:21:41.230Z,8752.00
2023-04-09T11:22:41.244Z,8528.00
2023-04-09T11:23:41.218Z,6924.00
2023-04-09T11:24:41.230Z,6136.00
2023-04-09T11:25:41.214Z,5488.00
2023-04-09T11:26:41.195Z,5248.00
2023-04-09T11:27:41.166Z,5024.00
2023-04-09T11:28:41.171Z,5128.00
2023-04-09T11:29:41.177Z,5044.00
2023-04-09T11:30:41.138Z,5628.00
2023-04-09T11:31:41.173Z,5780.00
2023-04-09T11:32:41.152Z,6276.00
2023-04-09T11:33:41.103Z,5888.00
2023-04-09T11:34:41.111Z,4880.00
2023-04-09T11:35:41.152Z,5188.00
2023-04-09T11:36:41.112Z,5188.00
2023-04-09T11:37:41.064Z,5820.00
2023-04-09T11:38:41.072Z,6108.00
2023-04-09T11:39:41.044Z,5732.00
2023-04-09T11:40:41.048Z,5860.00
2023-04-09T11:41:41.074Z,6572.00
2023-04-09T11:42:41.020Z,7800.00
2023-04-09T11:43:41.001Z,7944.00
2023-04-09T11:44:40.982Z,6592.00
2023-04-09T11:45:41.017Z,5508.00
2023-04-09T11:46:41.016Z,5416.00
2023-04-09T11:47:41.014Z,6020.00
2023-04-09T11:48:40.968Z,6648.00
2023-04-09T11:49:40.944Z,7416.00
2023-04-09T11:50:40.957Z,8328.00
2023-04-09T11:51:40.932Z,8364.00
2023-04-09T11:52:40.900Z,8832.00
2023-04-09T11:53:40.905Z,7868.00
2023-04-09T11:54:40.878Z,7312.00
2023-04-09T11:55:40.909Z,7952.00
2023-04-09T11:56:40.864Z,7764.00
2023-04-09T11:57:40.849Z,8576.00
2023-04-09T11:58:40.847Z,8228.00
2023-04-09T11:59:40.843Z,6972.00
2023-04-09T12:00:40.831Z,7008.00
2023-04-09T12:01:40.884Z,7216.00
2023-04-09T12:02:40.983Z,7000.00
2023-04-09T12:03:40.906Z,6512.00
2023-04-09T12:04:40.892Z,10796.00
2023-04-09T12:05:42.814Z,6040.00
2023-04-09T12:06:40.753Z,6304.00
2023-04-09T12:07:42.362Z,7388.00
2023-04-09T12:08:41.755Z,14848.00
2023-04-09T12:09:40.719Z,8188.00
2023-04-09T12:10:40.720Z,10236.00
2023-04-09T12:11:40.711Z,9764.00
2023-04-09T12:12:40.713Z,7924.00
2023-04-09T12:13:40.695Z,6472.00
2023-04-09T12:14:40.681Z,6760.00
2023-04-09T12:15:40.679Z,8080.00
2023-04-09T12:16:40.731Z,18112.00
2023-04-09T12:17:40.685Z,12296.00
2023-04-09T12:18:40.643Z,9096.00
2023-04-09T12:19:40.622Z,7420.00
2023-04-09T12:20:40.602Z,18048.00
2023-04-09T12:21:40.621Z,18784.00
2023-04-09T12:22:40.589Z,13528.00
2023-04-09T12:23:40.598Z,12052.00
2023-04-09T12:24:40.583Z,14284.00
2023-04-09T12:25:40.571Z,13888.00
2023-04-09T12:26:40.571Z,7472.00
2023-04-09T12:27:40.548Z,17792.00
2023-04-09T12:28:40.559Z,8832.00
2023-04-09T12:29:40.521Z,20352.00
2023-04-09T12:30:40.499Z,18304.00
2023-04-09T12:31:40.616Z,9376.00
2023-04-09T12:32:40.564Z,11092.00
2023-04-09T12:33:40.662Z,15396.00